createdAt,value
2022-08-09T00:01:10.574Z,23.50
2022-08-09T00:04:05.802Z,23.41
2022-08-09T00:06:28.208Z,23.35
2022-08-09T00:08:58.508Z,23.39
2022-08-09T00:11:56.936Z,23.38
2022-08-09T00:14:11.570Z,23.39
2022-08-09T00:16:44.610Z,23.38
2022-08-09T00:19:14.013Z,23.44
2022-08-09T00:21:56.071Z,23.21
2022-08-09T00:24:24.311Z,23.24
2022-08-09T00:26:51.353Z,23.46
2022-08-09T00:30:10.078Z,23.22
2022-08-09T00:32:05.805Z,23.11
2022-08-09T00:34:32.659Z,23.04
2022-08-09T00:37:00.491Z,22.81
2022-08-09T00:40:13.629Z,23.29
2022-08-09T00:44:13.010Z,22.76
2022-08-09T00:44:59.782Z,23.20
2022-08-09T00:47:35.891Z,23.24
2022-08-09T00:50:06.878Z,23.01
2022-08-09T00:52:40.931Z,22.99
2022-08-09T00:55:08.891Z,22.86
2022-08-09T00:57:43.404Z,22.80
2022-08-09T01:00:20.652Z,22.92
2022-08-09T01:02:52.850Z,22.94
2022-08-09T01:05:22.406Z,22.97
2022-08-09T01:08:19.570Z,22.59
2022-08-09T01:11:15.392Z,22.98
2022-08-09T01:13:58.779Z,22.95
2022-08-09T01:16:47.411Z,22.79
2022-08-09T01:19:51.678Z,22.94
2022-08-09T01:22:48.310Z,22.98
2022-08-09T01:25:27.067Z,22.97
2022-08-09T01:27:56.994Z,22.60
2022-08-09T01:30:28.817Z,22.29
2022-08-09T01:33:07.480Z,22.29
2022-08-09T01:35:46.892Z,22.44
2022-08-09T01:38:27.506Z,22.54
2022-08-09T01:41:05.350Z,22.17
2022-08-09T01:43:47.925Z,22.14
2022-08-09T01:46:26.594Z,22.49
2022-08-09T01:48:57.242Z,22.42
2022-08-09T01:51:32.146Z,21.68
2022-08-09T01:54:02.133Z,22.31
2022-08-09T01:56:32.714Z,22.00
2022-08-09T01:59:03.934Z,22.04
2022-08-09T02:01:58.511Z,21.83
2022-08-09T02:04:22.126Z,22.21
2022-08-09T02:07:15.580Z,22.23
2022-08-09T02:09:59.845Z,22.09
2022-08-09T02:12:30.699Z,21.93
2022-08-09T02:15:00.430Z,21.85
2022-08-09T02:18:01.138Z,21.50
2022-08-09T02:20:25.311Z,22.00
2022-08-09T02:23:16.894Z,22.26
2022-08-09T02:25:49.453Z,22.27
2022-08-09T02:28:24.681Z,22.37
2022-08-09T02:30:58.517Z,22.05
2022-08-09T02:33:37.773Z,22.04
2022-08-09T02:36:20.996Z,22.04
2022-08-09T02:38:52.733Z,22.12
2022-08-09T02:41:50.679Z,21.98
2022-08-09T02:44:30.273Z,22.03
2022-08-09T02:47:01.838Z,21.90
2022-08-09T02:49:39.015Z,22.06
2022-08-09T02:52:11.893Z,22.07
2022-08-09T02:54:51.147Z,21.92
2022-08-09T02:57:23.370Z,21.98
2022-08-09T03:00:20.783Z,22.05
2022-08-09T03:02:40.271Z,22.00
2022-08-09T03:05:26.497Z,22.17
2022-08-09T03:07:55.658Z,21.98
2022-08-09T03:10:24.092Z,22.18
2022-08-09T03:12:52.353Z,22.26
2022-08-09T03:15:22.819Z,22.04
2022-08-09T03:17:53.822Z,21.98
2022-08-09T03:20:29.568Z,22.20
2022-08-09T03:23:00.328Z,22.05
2022-08-09T03:25:57.808Z,22.03
2022-08-09T03:28:29.197Z,21.78
2022-08-09T03:30:57.887Z,21.88
2022-08-09T03:33:26.704Z,21.74
2022-08-09T03:36:16.877Z,21.81
2022-08-09T03:38:44.692Z,21.74
2022-08-09T03:41:16.311Z,21.89
2022-08-09T03:44:02.882Z,21.76
2022-08-09T03:46:34.251Z,21.66
2022-08-09T03:49:03.698Z,21.53
2022-08-09T03:51:56.911Z,21.75
2022-08-09T03:54:19.425Z,21.59
2022-08-09T03:56:58.195Z,21.60
2022-08-09T03:59:27.194Z,21.59
2022-08-09T04:02:09.414Z,21.53
2022-08-09T04:04:38.755Z,21.47
2022-08-09T04:07:06.263Z,21.43
2022-08-09T04:09:47.501Z,21.53
2022-08-09T04:12:30.114Z,21.56
2022-08-09T04:15:00.674Z,21.32
2022-08-09T04:17:29.397Z,21.41
2022-08-09T04:19:56.505Z,20.99
2022-08-09T04:22:23.556Z,21.13
2022-08-09T04:24:50.652Z,21.24
2022-08-09T04:27:22.192Z,21.40
2022-08-09T04:29:49.721Z,21.29
2022-08-09T04:32:31.514Z,21.27
2022-08-09T04:35:01.102Z,21.34
2022-08-09T04:37:45.601Z,21.41
2022-08-09T04:40:18.857Z,21.45
2022-08-09T04:42:45.914Z,21.25
2022-08-09T04:45:16.420Z,21.09
2022-08-09T04:48:00.175Z,21.31
2022-08-09T04:50:34.943Z,21.31
2022-08-09T04:53:11.586Z,21.15
2022-08-09T04:55:58.979Z,21.14
2022-08-09T04:58:31.867Z,21.32
2022-08-09T05:01:01.286Z,21.31
2022-08-09T05:03:39.962Z,21.23
2022-08-09T05:06:08.166Z,20.60
2022-08-09T05:08:35.238Z,21.05
2022-08-09T05:11:02.733Z,20.96
2022-08-09T05:13:33.256Z,21.03
2022-08-09T05:16:00.847Z,20.99
2022-08-09T05:18:39.351Z,20.92
2022-08-09T05:21:22.709Z,20.50
2022-08-09T05:23:59.545Z,20.88
2022-08-09T05:26:37.252Z,21.28
2022-08-09T05:29:17.051Z,21.19
2022-08-09T05:31:46.692Z,21.14
2022-08-09T05:34:17.404Z,21.17
2022-08-09T05:36:47.195Z,21.31
2022-08-09T05:39:29.076Z,21.29
2022-08-09T05:41:56.825Z,21.28
2022-08-09T05:44:29.181Z,21.34
2022-08-09T05:46:58.949Z,21.38
2022-08-09T05:50:30.921Z,21.30
2022-08-09T05:52:11.959Z,21.31
2022-08-09T05:54:39.243Z,21.42
2022-08-09T05:57:06.991Z,21.30
2022-08-09T05:59:39.640Z,21.58
2022-08-09T06:02:09.127Z,21.41
2022-08-09T06:04:36.773Z,21.42
2022-08-09T06:07:10.822Z,22.00
2022-08-09T06:10:01.543Z,21.94
2022-08-09T06:12:29.072Z,22.08
2022-08-09T06:14:56.405Z,22.11
2022-08-09T06:17:27.964Z,22.34
2022-08-09T06:20:07.728Z,22.34
2022-08-09T06:22:34.610Z,22.23
2022-08-09T06:25:01.339Z,22.52
2022-08-09T06:27:42.379Z,22.20
2022-08-09T06:30:14.204Z,22.25
2022-08-09T06:32:53.162Z,22.51
2022-08-09T06:35:56.083Z,22.73
2022-08-09T06:38:14.681Z,22.93
2022-08-09T06:40:43.072Z,22.89
2022-08-09T06:43:10.622Z,23.10
2022-08-09T06:46:06.707Z,22.96
2022-08-09T06:48:30.389Z,23.14
2022-08-09T06:50:59.066Z,23.04
2022-08-09T06:53:25.620Z,22.99
2022-08-09T06:55:52.494Z,23.14
2022-08-09T07:00:52.456Z,23.24
2022-08-09T07:01:05.928Z,23.39
2022-08-09T07:03:39.506Z,23.38
2022-08-09T07:06:18.237Z,23.54
2022-08-09T07:08:46.729Z,23.67
2022-08-09T07:11:23.381Z,23.59
2022-08-09T07:14:05.838Z,23.65
2022-08-09T07:16:41.121Z,23.78
2022-08-09T07:19:15.492Z,23.72
2022-08-09T07:21:55.651Z,23.96
2022-08-09T07:24:31.473Z,23.80
2022-08-09T07:27:00.434Z,23.62
2022-08-09T07:29:37.661Z,23.89
2022-08-09T07:32:05.524Z,23.83
2022-08-09T07:34:32.762Z,23.94
2022-08-09T07:37:02.543Z,24.15
2022-08-09T07:39:40.543Z,23.80
2022-08-09T07:42:08.652Z,24.18
2022-08-09T07:44:53.290Z,24.44
2022-08-09T07:47:25.012Z,24.50
2022-08-09T07:50:04.300Z,24.29
2022-08-09T07:52:32.741Z,24.43
2022-08-09T07:54:59.389Z,24.24
2022-08-09T07:57:33.724Z,24.57
2022-08-09T08:00:04.236Z,24.72
2022-08-09T08:02:30.946Z,24.72
2022-08-09T08:04:57.602Z,24.78
2022-08-09T08:08:44.301Z,25.05
2022-08-09T08:10:12.270Z,24.94
2022-08-09T08:12:42.401Z,25.13
2022-08-09T08:15:13.809Z,25.18
2022-08-09T08:17:54.536Z,25.29
2022-08-09T08:20:28.794Z,25.42
2022-08-09T08:22:58.619Z,25.39
2022-08-09T08:25:44.016Z,25.30
2022-08-09T08:28:14.313Z,25.50
2022-08-09T08:30:43.093Z,25.54
2022-08-09T08:33:12.145Z,25.79
2022-08-09T08:35:58.093Z,25.79
2022-08-09T08:38:27.922Z,25.83
2022-08-09T08:40:56.143Z,25.76
2022-08-09T08:43:23.788Z,25.99
2022-08-09T08:46:00.133Z,25.89
2022-08-09T08:48:36.702Z,26.22
2022-08-09T08:51:04.148Z,26.36
2022-08-09T08:53:36.986Z,26.52
2022-08-09T08:56:05.466Z,26.53
2022-08-09T08:58:33.210Z,26.78
2022-08-09T09:01:09.168Z,26.89
2022-08-09T09:03:50.361Z,26.76
2022-08-09T09:06:18.144Z,26.89
2022-08-09T09:08:52.448Z,26.95
2022-08-09T09:11:20.413Z,26.86
2022-08-09T09:13:57.207Z,27.02
2022-08-09T09:16:34.498Z,27.29
2022-08-09T09:19:39.357Z,27.38
2022-08-09T09:22:07.914Z,27.44
2022-08-09T09:25:00.892Z,27.69
2022-08-09T09:28:05.631Z,27.73
2022-08-09T09:30:47.277Z,27.76
2022-08-09T09:33:17.474Z,27.76
2022-08-09T09:36:01.658Z,27.73
2022-08-09T09:38:45.596Z,27.83
2022-08-09T09:41:33.381Z,27.87
2022-08-09T09:44:25.881Z,28.00
2022-08-09T09:47:08.963Z,28.04
2022-08-09T09:50:07.536Z,27.97
2022-08-09T09:52:36.644Z,28.15
2022-08-09T09:55:28.307Z,28.43
2022-08-09T09:58:17.074Z,28.68
2022-08-09T10:00:58.772Z,28.29
2022-08-09T10:03:56.210Z,28.58
2022-08-09T10:06:24.503Z,28.31
2022-08-09T10:08:58.474Z,28.42
2022-08-09T10:11:53.733Z,28.77
2022-08-09T10:14:31.930Z,28.81
2022-08-09T10:17:40.003Z,28.91
2022-08-09T10:19:59.349Z,28.93
2022-08-09T10:22:34.786Z,29.22
2022-08-09T10:25:12.478Z,29.29
2022-08-09T10:27:56.569Z,29.42
2022-08-09T10:32:20.945Z,29.69
2022-08-09T10:34:08.941Z,29.62
2022-08-09T10:36:02.524Z,29.81
2022-08-09T10:38:54.390Z,29.83
2022-08-09T10:41:20.734Z,29.88
2022-08-09T10:43:59.249Z,30.04
2022-08-09T10:46:34.400Z,30.03
2022-08-09T10:49:13.304Z,29.81
2022-08-09T10:51:58.729Z,29.83
2022-08-09T10:54:25.361Z,30.13
2022-08-09T10:57:11.754Z,30.38
2022-08-09T10:59:43.408Z,30.52
2022-08-09T11:03:16.002Z,31.13
2022-08-09T11:05:30.281Z,31.33
2022-08-09T11:08:51.132Z,31.39
2022-08-09T11:11:21.683Z,31.32
2022-08-09T11:14:28.883Z,31.67
2022-08-09T11:16:58.416Z,31.67
2022-08-09T11:20:10.635Z,32.02
2022-08-09T11:22:57.112Z,32.52
2022-08-09T11:25:44.612Z,32.84
2022-08-09T11:28:34.297Z,32.63
2022-08-09T11:31:04.013Z,32.79
2022-08-09T11:33:57.161Z,32.34
2022-08-09T11:36:35.382Z,32.22
2022-08-09T11:39:03.908Z,32.07
2022-08-09T11:41:38.374Z,32.34
2022-08-09T11:44:08.165Z,32.30
2022-08-09T11:46:56.930Z,32.07
2022-08-09T11:50:55.240Z,32.26
2022-08-09T11:53:21.359Z,32.37
2022-08-09T11:55:53.952Z,32.50
2022-08-09T11:58:33.597Z,32.54
2022-08-09T12:01:37.344Z,32.43
2022-08-09T12:04:00.939Z,32.33
2022-08-09T12:06:32.652Z,32.38
2022-08-09T12:09:15.200Z,32.67
2022-08-09T12:12:03.503Z,32.41
2022-08-09T12:14:40.887Z,32.44
2022-08-09T12:17:27.837Z,32.49
2022-08-09T12:20:25.431Z,32.64
2022-08-09T12:23:02.214Z,33.21
2022-08-09T12:25:37.160Z,33.28
2022-08-09T12:29:12.310Z,33.39
2022-08-09T12:31:11.318Z,33.56
2022-08-09T12:33:58.558Z,33.49
2022-08-09T12:36:31.291Z,33.05
2022-08-09T12:38:59.601Z,32.92
2022-08-09T12:41:36.251Z,32.55
2022-08-09T12:44:10.345Z,32.38
2022-08-09T12:46:50.107Z,32.71
2022-08-09T12:49:17.765Z,32.86
2022-08-09T12:52:02.253Z,33.09
2022-08-09T12:56:11.009Z,32.69
2022-08-09T12:57:36.146Z,32.09
2022-08-09T13:00:12.302Z,33.17
2022-08-09T13:02:54.086Z,33.25
2022-08-09T13:05:22.712Z,33.32
2022-08-09T13:08:14.399Z,33.44
2022-08-09T13:10:45.534Z,33.28
2022-08-09T13:13:37.989Z,33.21
2022-08-09T13:16:19.816Z,33.11
2022-08-09T13:18:48.716Z,33.64
2022-08-09T13:22:36.148Z,33.99
2022-08-09T13:24:48.443Z,33.95
2022-08-09T13:27:04.734Z,34.01
2022-08-09T13:30:02.372Z,33.77
2022-08-09T13:32:38.316Z,33.97
2022-08-09T13:35:08.226Z,33.76
2022-08-09T13:37:51.981Z,33.76
2022-08-09T13:41:50.810Z,33.73
2022-08-09T13:43:09.475Z,33.89
2022-08-09T13:46:42.225Z,33.92
2022-08-09T13:48:23.214Z,33.98
2022-08-09T13:50:51.173Z,34.22
2022-08-09T13:53:17.780Z,34.19
2022-08-09T13:55:44.852Z,34.00
2022-08-09T13:58:14.316Z,33.50
2022-08-09T14:00:50.402Z,34.08
2022-08-09T14:04:01.802Z,34.42
2022-08-09T14:06:19.589Z,34.66
2022-08-09T14:08:54.303Z,34.88
2022-08-09T14:11:21.263Z,34.88
2022-08-09T14:14:24.316Z,34.58
2022-08-09T14:16:34.586Z,34.85
2022-08-09T14:19:01.185Z,34.97
2022-08-09T14:21:29.615Z,35.00
2022-08-09T14:24:01.534Z,34.97
2022-08-09T14:26:37.770Z,35.04
2022-08-09T14:29:07.784Z,35.35
2022-08-09T14:31:54.408Z,35.25
2022-08-09T14:34:31.928Z,35.30
2022-08-09T14:37:06.462Z,35.34
2022-08-09T14:39:39.839Z,35.36
2022-08-09T14:42:11.602Z,35.46
2022-08-09T14:44:48.976Z,35.41
2022-08-09T14:47:39.809Z,35.53
2022-08-09T14:50:11.585Z,35.48
2022-08-09T14:52:42.916Z,35.43
2022-08-09T14:55:09.853Z,35.35
2022-08-09T14:57:43.646Z,35.46
2022-08-09T15:00:11.465Z,35.42
2022-08-09T15:02:38.584Z,35.77
2022-08-09T15:05:07.233Z,35.72
2022-08-09T15:07:35.115Z,35.38
2022-08-09T15:10:07.212Z,35.34
2022-08-09T15:12:37.873Z,34.93
2022-08-09T15:15:08.570Z,34.93
2022-08-09T15:17:42.515Z,35.07
2022-08-09T15:20:15.315Z,34.93
2022-08-09T15:24:03.689Z,35.01
2022-08-09T15:25:52.940Z,34.83
2022-08-09T15:28:26.378Z,35.05
2022-08-09T15:31:08.601Z,35.24
2022-08-09T15:34:18.033Z,35.43
2022-08-09T15:36:29.094Z,35.39
2022-08-09T15:39:00.048Z,35.32
2022-08-09T15:41:32.296Z,35.40
2022-08-09T15:44:03.618Z,34.78
2022-08-09T15:46:33.190Z,34.80
2022-08-09T15:49:22.374Z,34.97
2022-08-09T15:52:03.231Z,34.87
2022-08-09T15:54:49.015Z,35.34
2022-08-09T15:57:19.019Z,35.06
2022-08-09T16:00:01.914Z,35.18
2022-08-09T16:02:28.494Z,35.62
2022-08-09T16:04:55.803Z,35.37
2022-08-09T16:07:22.521Z,34.96
2022-08-09T16:10:04.084Z,34.70
2022-08-09T16:12:32.906Z,35.54
2022-08-09T16:15:00.565Z,35.24
2022-08-09T16:17:28.585Z,34.77
2022-08-09T16:20:03.887Z,35.01
2022-08-09T16:22:32.343Z,34.69
2022-08-09T16:25:01.462Z,34.91
2022-08-09T16:27:29.957Z,35.01
2022-08-09T16:30:00.771Z,34.47
2022-08-09T16:32:53.302Z,34.83
2022-08-09T16:35:53.344Z,35.11
2022-08-09T16:38:09.205Z,34.83
2022-08-09T16:40:40.779Z,34.23
2022-08-09T16:43:08.405Z,34.52
2022-08-09T16:45:37.195Z,34.53
2022-08-09T16:48:41.795Z,34.42
2022-08-09T16:50:59.032Z,34.20
2022-08-09T16:53:32.256Z,33.86
2022-08-09T16:56:06.011Z,34.07
2022-08-09T16:58:36.105Z,33.49
2022-08-09T17:01:04.539Z,33.23
2022-08-09T17:03:31.485Z,33.43
2022-08-09T17:06:09.329Z,33.17
2022-08-09T17:09:03.055Z,33.00
2022-08-09T17:11:41.350Z,33.37
2022-08-09T17:14:25.730Z,32.67
2022-08-09T17:17:00.160Z,32.83
2022-08-09T17:19:47.185Z,33.24
2022-08-09T17:22:24.201Z,32.62
2022-08-09T17:25:03.665Z,32.82
2022-08-09T17:27:33.112Z,32.86
2022-08-09T17:29:59.773Z,32.96
2022-08-09T17:32:37.515Z,32.75
2022-08-09T17:35:11.646Z,32.74
2022-08-09T17:38:11.799Z,32.70
2022-08-09T17:40:28.242Z,32.54
2022-08-09T17:42:59.680Z,32.57
2022-08-09T17:46:01.851Z,32.54
2022-08-09T17:48:28.725Z,32.49
2022-08-09T17:50:59.386Z,32.38
2022-08-09T17:53:43.016Z,32.67
2022-08-09T17:56:10.050Z,32.52
2022-08-09T17:58:36.576Z,32.47
2022-08-09T18:01:03.227Z,32.33
2022-08-09T18:03:30.470Z,32.44
2022-08-09T18:05:58.491Z,32.57
2022-08-09T18:08:28.127Z,32.67
2022-08-09T18:11:01.725Z,32.37
2022-08-09T18:13:43.000Z,32.62
2022-08-09T18:16:16.488Z,32.65
2022-08-09T18:18:49.058Z,32.19
2022-08-09T18:21:23.118Z,32.39
2022-08-09T18:24:10.068Z,31.85
2022-08-09T18:26:38.625Z,31.97
2022-08-09T18:30:42.992Z,32.12
2022-08-09T18:32:00.803Z,32.11
2022-08-09T18:34:31.454Z,32.13
2022-08-09T18:36:58.571Z,32.27
2022-08-09T18:39:31.931Z,31.57
2022-08-09T18:41:59.003Z,31.45
2022-08-09T18:44:26.077Z,31.79
2022-08-09T18:47:05.015Z,31.53
2022-08-09T18:49:43.262Z,31.35
2022-08-09T18:52:11.703Z,31.27
2022-08-09T18:54:39.115Z,31.28
2022-08-09T18:57:08.862Z,31.41
2022-08-09T18:59:51.219Z,31.45
2022-08-09T19:02:32.224Z,31.20
2022-08-09T19:05:20.358Z,31.74
2022-08-09T19:08:04.175Z,30.91
2022-08-09T19:10:39.360Z,30.48
2022-08-09T19:13:20.873Z,30.96
2022-08-09T19:15:55.512Z,30.37
2022-08-09T19:18:33.778Z,30.06
2022-08-09T19:21:09.171Z,29.75
2022-08-09T19:24:32.096Z,30.01
2022-08-09T19:26:31.214Z,29.97
2022-08-09T19:29:02.147Z,29.91
2022-08-09T19:31:45.696Z,30.22
2022-08-09T19:34:21.839Z,29.84
2022-08-09T19:36:50.959Z,30.04
2022-08-09T19:39:17.508Z,30.00
2022-08-09T19:41:47.970Z,29.94
2022-08-09T19:44:15.307Z,29.67
2022-08-09T19:46:50.546Z,29.88
2022-08-09T19:50:08.877Z,29.69
2022-08-09T19:52:07.753Z,30.37
2022-08-09T19:54:34.327Z,29.98
2022-08-09T19:57:00.776Z,29.62
2022-08-09T19:59:58.414Z,29.69
2022-08-09T20:04:16.805Z,29.77
2022-08-09T20:05:09.676Z,29.42
2022-08-09T20:08:00.195Z,29.37
2022-08-09T20:10:28.097Z,29.12
2022-08-09T20:13:02.404Z,29.12
2022-08-09T20:16:34.713Z,28.83
2022-08-09T20:18:18.004Z,29.16
2022-08-09T20:20:46.664Z,29.13
2022-08-09T20:23:13.178Z,29.02
2022-08-09T20:25:51.590Z,29.05
2022-08-09T20:28:27.672Z,29.04
2022-08-09T20:31:00.964Z,29.77
2022-08-09T20:33:39.030Z,29.10
2022-08-09T20:36:10.288Z,29.08
2022-08-09T20:39:17.093Z,29.60
2022-08-09T20:41:34.823Z,29.05
2022-08-09T20:44:03.050Z,29.55
2022-08-09T20:46:41.936Z,29.44
2022-08-09T20:49:11.351Z,29.41
2022-08-09T20:51:41.590Z,29.24
2022-08-09T20:54:12.515Z,29.13
2022-08-09T20:56:42.924Z,28.98
2022-08-09T20:59:13.393Z,28.79
2022-08-09T21:01:51.230Z,29.12
2022-08-09T21:05:56.985Z,28.96
2022-08-09T21:07:12.149Z,28.88
2022-08-09T21:09:45.905Z,28.55
2022-08-09T21:12:23.051Z,28.82
2022-08-09T21:14:49.606Z,28.67
2022-08-09T21:18:11.901Z,28.40
2022-08-09T21:20:17.305Z,28.67
2022-08-09T21:22:53.902Z,28.47
2022-08-09T21:25:39.816Z,28.35
2022-08-09T21:28:11.904Z,28.25
2022-08-09T21:30:42.545Z,28.33
2022-08-09T21:33:09.817Z,28.26
2022-08-09T21:35:40.645Z,28.21
2022-08-09T21:38:18.435Z,28.14
2022-08-09T21:40:50.521Z,27.80
2022-08-09T21:43:21.726Z,27.88
2022-08-09T21:46:03.847Z,27.84
2022-08-09T21:48:31.466Z,27.87
2022-08-09T21:50:58.651Z,27.76
2022-08-09T21:53:40.151Z,27.77
2022-08-09T21:56:07.497Z,27.61
2022-08-09T21:58:53.907Z,27.25
2022-08-09T22:01:45.017Z,27.01
2022-08-09T22:04:06.785Z,27.43
2022-08-09T22:06:33.335Z,27.47
2022-08-09T22:08:59.784Z,27.45
2022-08-09T22:12:09.135Z,27.14
2022-08-09T22:14:13.481Z,27.29
2022-08-09T22:16:41.380Z,27.31
2022-08-09T22:19:53.306Z,27.11
2022-08-09T22:21:54.350Z,27.06
2022-08-09T22:24:24.833Z,27.17
2022-08-09T22:26:52.221Z,27.05
2022-08-09T22:29:19.677Z,26.78
2022-08-09T22:31:56.571Z,26.85
2022-08-09T22:34:25.875Z,26.78
2022-08-09T22:36:57.533Z,27.02
2022-08-09T22:39:55.448Z,27.01
2022-08-09T22:42:22.181Z,26.89
2022-08-09T22:48:05.934Z,26.67
2022-08-09T22:48:11.235Z,26.38
2022-08-09T22:50:25.113Z,26.82
2022-08-09T22:52:57.701Z,26.54
2022-08-09T22:55:24.673Z,26.46
2022-08-09T22:58:00.548Z,26.42
2022-08-09T23:00:29.302Z,26.49
2022-08-09T23:02:56.222Z,26.58
2022-08-09T23:05:22.825Z,26.50
2022-08-09T23:08:27.496Z,26.49
2022-08-09T23:10:56.550Z,26.53
2022-08-09T23:13:23.022Z,26.42
2022-08-09T23:16:02.410Z,26.31
2022-08-09T23:18:30.363Z,26.43
2022-08-09T23:20:56.840Z,26.31
2022-08-09T23:23:23.300Z,26.25
2022-08-09T23:25:49.737Z,26.02
2022-08-09T23:28:16.304Z,26.07
2022-08-09T23:30:50.875Z,25.90
2022-08-09T23:33:18.532Z,26.21
2022-08-09T23:36:04.732Z,25.84
2022-08-09T23:38:31.513Z,26.19
2022-08-09T23:40:57.936Z,26.24
2022-08-09T23:43:24.366Z,25.95
2022-08-09T23:45:50.995Z,26.10
2022-08-09T23:48:18.145Z,26.45
2022-08-09T23:50:44.565Z,25.87
2022-08-09T23:53:11.081Z,26.26
2022-08-09T23:55:38.882Z,25.80
2022-08-09T23:58:09.310Z,26.53
